Tufts Univ, Massachusetts
Current Conditions -  °F | °C
As of 4:54 PM on Thursday 18 Dec 2014 (Local Time) from KBOS Reporting Station
Broken Clouds Broken Clouds  
Wind Chill: 33°   Ceiling: 4100
Heat Index: 41°   Visibility: 10mi
Dew Point: 28°   Wind: 16mph
Humidity: 60%   Direction: 290°WNW
Pressure: 29.82"   Gusts: 22mph
Location:  42.4184°N, 71.1069°W
Report Text: KBOS 182154Z 29014G19KT 10SM BKN041 05/M02 A2982 RMK AO2 SLP096 T00501022
Loading
Personal Weather Stations






























Interactive Weather Map New forecast layout! Learn more

10-Day Weather Forecast

Advertisements
Track Severe Weather on mobile